createdAt,value
2019-04-21T00:00:55.408Z,72.62
2019-04-21T00:02:59.615Z,44.45
2019-04-21T00:05:24.583Z,49.80
2019-04-21T00:07:36.496Z,42.85
2019-04-21T00:09:50.708Z,44.03
2019-04-21T00:11:55.371Z,34.67
2019-04-21T00:14:05.089Z,38.15
2019-04-21T00:15:58.946Z,49.58
2019-04-21T00:18:15.680Z,35.60
2019-04-21T00:20:31.049Z,37.25
2019-04-21T00:22:52.623Z,37.10
2019-04-21T00:25:01.079Z,49.18
2019-04-21T00:27:11.143Z,42.90
2019-04-21T00:29:31.402Z,45.85
2019-04-21T00:31:29.906Z,46.80
2019-04-21T00:33:26.790Z,22.90
2019-04-21T00:35:45.397Z,24.27
2019-04-21T00:38:15.376Z,22.58
2019-04-21T00:40:22.723Z,28.55
2019-04-21T00:42:31.544Z,23.22
2019-04-21T00:44:46.542Z,21.07
2019-04-21T00:47:01.773Z,26.80
2019-04-21T00:49:18.131Z,18.10
2019-04-21T00:51:40.239Z,16.15
2019-04-21T00:53:58.335Z,23.60
2019-04-21T00:56:11.263Z,31.07
2019-04-21T00:58:20.738Z,29.12
2019-04-21T01:00:27.335Z,51.55
2019-04-21T01:02:47.169Z,44.93
2019-04-21T01:04:53.878Z,36.30
2019-04-21T01:07:02.965Z,47.70
2019-04-21T01:09:02.718Z,52.88
2019-04-21T01:11:19.220Z,79.87
2019-04-21T01:13:38.721Z,103.25
2019-04-21T01:15:43.548Z,128.35
2019-04-21T01:17:46.005Z,151.35
2019-04-21T01:19:54.762Z,113.12
2019-04-21T01:21:45.301Z,140.75
2019-04-21T01:24:07.926Z,76.45
2019-04-21T01:26:18.007Z,96.97
2019-04-21T01:28:35.967Z,91.70
2019-04-21T01:30:44.881Z,64.90
2019-04-21T01:33:02.020Z,54.95
2019-04-21T01:35:14.990Z,44.63
2019-04-21T01:37:32.980Z,47.58
2019-04-21T01:39:41.208Z,56.50
2019-04-21T01:41:52.587Z,84.62
2019-04-21T01:43:59.298Z,81.70
2019-04-21T01:46:14.137Z,83.33
2019-04-21T01:48:24.649Z,92.80
2019-04-21T01:50:41.153Z,69.70
2019-04-21T01:53:02.007Z,55.05
2019-04-21T01:55:18.413Z,41.02
2019-04-21T01:57:35.728Z,45.55
2019-04-21T01:59:34.980Z,38.38
2019-04-21T02:01:59.228Z,27.55
2019-04-21T02:04:02.781Z,21.97
2019-04-21T02:06:27.536Z,25.00
2019-04-21T02:08:28.790Z,21.10
2019-04-21T02:10:46.218Z,18.80
2019-04-21T02:12:53.858Z,17.57
2019-04-21T02:15:11.485Z,21.85
2019-04-21T02:17:14.483Z,19.23
2019-04-21T02:19:13.881Z,18.95
2019-04-21T02:21:31.727Z,25.60
2019-04-21T02:23:46.191Z,29.35
2019-04-21T02:25:57.589Z,35.65
2019-04-21T02:28:07.857Z,26.45
2019-04-21T02:30:24.238Z,29.18
2019-04-21T02:32:42.091Z,39.92
2019-04-21T02:36:53.412Z,36.35
2019-04-21T02:39:20.985Z,32.33
2019-04-21T02:41:05.872Z,27.98
2019-04-21T02:45:43.375Z,28.77
2019-04-21T02:48:04.441Z,25.97
2019-04-21T02:50:10.081Z,20.77
2019-04-21T02:52:26.947Z,28.62
2019-04-21T02:59:02.954Z,23.20
2019-04-21T03:03:36.647Z,24.40
2019-04-21T03:08:30.004Z,25.43
2019-04-21T03:10:37.097Z,31.00
2019-04-21T03:12:38.524Z,30.70
2019-04-21T03:17:05.112Z,24.23
2019-04-21T03:19:17.624Z,31.35
2019-04-21T03:23:38.165Z,16.95
2019-04-21T03:30:20.731Z,18.20
2019-04-21T03:32:49.493Z,14.55
2019-04-21T03:37:00.491Z,19.20
2019-04-21T03:38:53.214Z,13.85
2019-04-21T03:41:10.582Z,14.78
2019-04-21T03:43:20.510Z,13.35
2019-04-21T03:47:40.558Z,15.38
2019-04-21T03:50:07.086Z,18.27
2019-04-21T03:54:33.062Z,30.52
2019-04-21T03:58:58.491Z,25.02
2019-04-21T04:03:52.197Z,18.12
2019-04-21T04:08:22.532Z,16.50
2019-04-21T04:12:34.343Z,19.48
2019-04-21T04:17:11.830Z,16.35
2019-04-21T04:19:09.457Z,16.32
2019-04-21T04:21:28.345Z,23.25
2019-04-21T04:25:33.799Z,13.85
2019-04-21T04:27:59.889Z,17.70
2019-04-21T04:30:04.641Z,16.15
2019-04-21T04:32:14.638Z,18.20
2019-04-21T04:34:24.798Z,15.80
2019-04-21T04:36:44.214Z,18.70
2019-04-21T04:38:46.837Z,17.42
2019-04-21T04:41:24.468Z,13.62
2019-04-21T04:46:10.614Z,13.10
2019-04-21T04:50:10.252Z,20.65
2019-04-21T04:52:32.554Z,15.93
2019-04-21T04:54:48.468Z,22.32
2019-04-21T04:56:53.930Z,19.98
2019-04-21T04:59:29.984Z,17.45
2019-04-21T05:01:15.827Z,22.50
2019-04-21T05:03:23.966Z,20.05
2019-04-21T05:05:48.678Z,16.57
2019-04-21T05:07:42.991Z,21.00
2019-04-21T05:09:47.292Z,21.48
2019-04-21T05:11:55.728Z,18.20
2019-04-21T05:16:24.324Z,17.02
2019-04-21T05:18:25.271Z,18.37
2019-04-21T05:20:41.788Z,16.45
2019-04-21T05:22:42.699Z,15.75
2019-04-21T05:24:44.481Z,23.85
2019-04-21T05:26:58.499Z,20.15
2019-04-21T05:29:00.439Z,25.62
2019-04-21T05:31:34.948Z,17.98
2019-04-21T05:33:57.684Z,21.95
2019-04-21T05:36:34.328Z,19.45
2019-04-21T05:39:06.479Z,16.25
2019-04-21T05:41:13.057Z,21.27
2019-04-21T05:43:32.624Z,21.45
2019-04-21T05:45:42.252Z,20.90
2019-04-21T05:48:23.171Z,17.20
2019-04-21T05:50:32.614Z,20.57
2019-04-21T05:52:50.395Z,16.15
2019-04-21T05:55:12.674Z,17.15
2019-04-21T05:57:14.679Z,18.25
2019-04-21T05:59:43.705Z,19.45
2019-04-21T06:02:06.107Z,20.55
2019-04-21T06:04:17.110Z,24.10
2019-04-21T06:06:26.167Z,21.90
2019-04-21T06:08:31.319Z,17.80
2019-04-21T06:12:50.307Z,18.60
2019-04-21T06:15:01.063Z,23.10
2019-04-21T06:19:31.171Z,22.33
2019-04-21T06:21:35.970Z,23.87
2019-04-21T06:23:42.367Z,19.33
2019-04-21T06:26:17.926Z,19.47
2019-04-21T06:28:10.299Z,21.17
2019-04-21T06:30:13.417Z,24.13
2019-04-21T06:32:46.058Z,18.97
2019-04-21T06:34:49.647Z,16.00
2019-04-21T06:37:18.777Z,20.10
2019-04-21T06:39:33.187Z,18.73
2019-04-21T06:41:31.438Z,23.43
2019-04-21T06:43:39.956Z,22.77
2019-04-21T06:45:54.349Z,23.70
2019-04-21T06:48:05.959Z,23.00
2019-04-21T06:50:18.572Z,23.13
2019-04-21T06:55:03.378Z,19.00
2019-04-21T06:57:01.991Z,26.43
2019-04-21T06:59:09.468Z,18.20
2019-04-21T07:01:34.535Z,20.00
2019-04-21T07:03:34.660Z,16.77
2019-04-21T07:05:50.559Z,15.43
2019-04-21T07:08:09.307Z,17.33
2019-04-21T07:12:18.340Z,16.40
2019-04-21T07:16:42.902Z,15.00
2019-04-21T07:18:58.602Z,16.10
2019-04-21T07:20:54.987Z,23.17
2019-04-21T07:23:15.649Z,22.27
2019-04-21T07:25:22.554Z,20.13
2019-04-21T07:27:35.484Z,36.00
2019-04-21T07:29:56.552Z,39.87
2019-04-21T07:32:04.425Z,28.57
2019-04-21T07:34:19.021Z,40.20
2019-04-21T07:36:21.843Z,25.30
2019-04-21T07:38:22.441Z,33.43
2019-04-21T07:40:39.939Z,20.20
2019-04-21T07:42:47.800Z,20.70
2019-04-21T07:44:57.964Z,11.23
2019-04-21T07:47:20.243Z,15.83
2019-04-21T07:49:46.261Z,14.73
2019-04-21T07:52:22.184Z,9.80
2019-04-21T07:54:34.226Z,11.13
2019-04-21T07:56:34.359Z,10.23
2019-04-21T07:59:00.179Z,11.70
2019-04-21T08:01:04.550Z,10.50
2019-04-21T08:03:15.459Z,10.20
2019-04-21T08:05:20.077Z,9.50
2019-04-21T08:07:45.000Z,11.37
2019-04-21T08:09:45.273Z,9.43
2019-04-21T08:11:44.131Z,10.00
2019-04-21T08:14:01.088Z,8.43
2019-04-21T08:16:10.609Z,9.97
2019-04-21T08:18:21.023Z,8.70
2019-04-21T08:20:28.514Z,10.10
2019-04-21T08:22:43.217Z,9.80
2019-04-21T08:24:54.353Z,7.53
2019-04-21T08:27:03.213Z,10.00
2019-04-21T08:29:20.651Z,8.20
2019-04-21T08:31:34.440Z,8.10
2019-04-21T08:36:04.722Z,7.73
2019-04-21T08:37:50.815Z,9.20
2019-04-21T08:42:25.301Z,8.03
2019-04-21T08:44:43.202Z,7.10
2019-04-21T08:46:55.097Z,7.93
2019-04-21T08:48:55.437Z,8.03
2019-04-21T08:51:23.982Z,8.13
2019-04-21T08:53:27.385Z,8.43
2019-04-21T08:55:52.407Z,7.10
2019-04-21T09:00:57.785Z,9.87
2019-04-21T09:03:06.458Z,6.70
2019-04-21T09:05:11.122Z,7.37
2019-04-21T09:09:34.588Z,8.47
2019-04-21T09:11:42.217Z,7.33
2019-04-21T09:13:54.833Z,7.53
2019-04-21T09:15:59.556Z,6.10
2019-04-21T09:18:08.825Z,7.00
2019-04-21T09:22:29.966Z,7.00
2019-04-21T09:24:41.276Z,6.07
2019-04-21T09:26:46.136Z,5.53
2019-04-21T09:28:51.909Z,6.50
2019-04-21T09:30:57.756Z,9.20
2019-04-21T09:33:02.421Z,6.83
2019-04-21T09:35:17.361Z,6.83
2019-04-21T09:37:36.962Z,6.87
2019-04-21T09:39:33.364Z,6.90
2019-04-21T09:41:54.484Z,7.13
2019-04-21T09:43:59.717Z,5.57
2019-04-21T09:46:06.188Z,6.77
2019-04-21T09:48:22.533Z,5.90
2019-04-21T09:50:27.057Z,9.10
2019-04-21T09:52:41.851Z,7.87
2019-04-21T09:54:56.451Z,6.83
2019-04-21T09:57:05.837Z,7.50
2019-04-21T09:59:23.669Z,6.47
2019-04-21T10:01:32.146Z,5.40
2019-04-21T10:03:43.450Z,5.90
2019-04-21T10:05:51.869Z,7.33
2019-04-21T10:07:57.595Z,7.27
2019-04-21T10:10:03.839Z,4.43
2019-04-21T10:12:16.280Z,7.37
2019-04-21T10:14:22.084Z,4.70
2019-04-21T10:16:54.045Z,5.70
2019-04-21T10:19:00.483Z,6.37
2019-04-21T10:21:07.614Z,6.10
2019-04-21T10:23:19.638Z,6.40
2019-04-21T10:25:25.088Z,8.30
2019-04-21T10:27:39.291Z,5.93
2019-04-21T10:29:45.341Z,4.90
2019-04-21T10:31:54.570Z,4.60
2019-04-21T10:34:07.424Z,5.30
2019-04-21T10:36:13.166Z,4.67
2019-04-21T10:38:28.210Z,5.27
2019-04-21T10:40:35.235Z,6.60
2019-04-21T10:42:46.065Z,6.47
2019-04-21T10:44:58.872Z,6.33
2019-04-21T10:47:04.779Z,4.10
2019-04-21T10:49:10.777Z,5.13
2019-04-21T10:51:23.111Z,6.07
2019-04-21T10:53:32.286Z,4.80
2019-04-21T10:56:00.405Z,5.40
2019-04-21T10:58:26.604Z,5.73
2019-04-21T11:00:34.326Z,4.70
2019-04-21T11:02:54.878Z,4.80
2019-04-21T11:05:00.740Z,6.43
2019-04-21T11:07:36.105Z,4.80
2019-04-21T11:09:40.190Z,4.93
2019-04-21T11:11:48.114Z,5.97
2019-04-21T11:14:00.552Z,4.47
2019-04-21T11:16:05.737Z,8.20
2019-04-21T11:18:19.844Z,5.70
2019-04-21T11:20:33.031Z,5.13
2019-04-21T11:22:45.364Z,5.67
2019-04-21T11:24:53.235Z,5.30
2019-04-21T11:27:06.655Z,4.87
2019-04-21T11:29:19.151Z,6.87
2019-04-21T11:31:25.116Z,5.00
2019-04-21T11:33:31.303Z,8.17
2019-04-21T11:35:43.586Z,6.63
2019-04-21T11:37:50.295Z,6.73
2019-04-21T11:40:09.173Z,5.50
2019-04-21T11:42:25.812Z,5.47
2019-04-21T11:44:31.152Z,5.87
2019-04-21T11:46:44.451Z,5.07
2019-04-21T11:48:50.465Z,5.33
2019-04-21T11:50:57.249Z,6.10
2019-04-21T11:53:10.627Z,11.03
2019-04-21T11:55:16.611Z,6.63
2019-04-21T11:57:35.042Z,5.90
2019-04-21T11:59:43.774Z,7.77
2019-04-21T12:02:03.455Z,12.20
2019-04-21T12:04:09.765Z,8.40
2019-04-21T12:06:30.781Z,6.00
2019-04-21T12:08:42.278Z,6.80
2019-04-21T12:10:45.097Z,7.00
2019-04-21T12:13:07.415Z,10.30
2019-04-21T12:15:14.154Z,9.17
2019-04-21T12:17:20.344Z,8.33
2019-04-21T12:19:32.616Z,7.80
2019-04-21T12:21:50.521Z,7.47
2019-04-21T12:23:52.307Z,8.10
2019-04-21T12:25:58.999Z,7.20
2019-04-21T12:28:05.767Z,8.03
2019-04-21T12:30:19.839Z,8.83
2019-04-21T12:32:48.673Z,7.00
2019-04-21T12:34:55.237Z,7.47
2019-04-21T12:37:08.522Z,7.60
2019-04-21T12:39:14.892Z,6.57
2019-04-21T12:41:33.842Z,8.67
2019-04-21T12:43:39.132Z,6.60
2019-04-21T12:45:44.283Z,6.27
2019-04-21T12:47:58.013Z,11.30
2019-04-21T12:50:04.570Z,6.70
2019-04-21T12:52:17.736Z,7.77
2019-04-21T12:54:23.794Z,8.53
2019-04-21T12:56:35.654Z,9.83
2019-04-21T12:58:48.973Z,9.53
2019-04-21T13:01:01.347Z,7.87
2019-04-21T13:03:14.166Z,7.57
2019-04-21T13:05:19.978Z,7.60
2019-04-21T13:07:25.786Z,6.27
2019-04-21T13:09:38.298Z,6.83
2019-04-21T13:11:43.625Z,6.67
2019-04-21T13:13:55.781Z,6.90
2019-04-21T13:16:01.222Z,9.17
2019-04-21T13:18:08.150Z,8.67
2019-04-21T13:20:21.144Z,7.07
2019-04-21T13:22:26.437Z,9.30
2019-04-21T13:24:38.162Z,7.30
2019-04-21T13:26:55.761Z,8.60
2019-04-21T13:28:58.429Z,8.50
2019-04-21T13:31:12.001Z,7.30
2019-04-21T13:33:18.774Z,9.33
2019-04-21T13:35:24.161Z,6.70
2019-04-21T13:37:35.459Z,6.47
2019-04-21T13:40:19.474Z,7.20
2019-04-21T13:42:23.891Z,8.47
2019-04-21T13:44:30.896Z,8.93
2019-04-21T13:46:38.599Z,6.57
2019-04-21T13:48:44.753Z,8.10
2019-04-21T13:50:57.385Z,7.87
2019-04-21T13:53:09.846Z,10.90
2019-04-21T13:55:15.877Z,7.53
2019-04-21T13:57:23.947Z,7.00
2019-04-21T13:59:36.365Z,7.23
2019-04-21T14:01:49.751Z,9.53
2019-04-21T14:04:09.549Z,9.07
2019-04-21T14:06:22.513Z,6.37
2019-04-21T14:08:29.358Z,9.20
2019-04-21T14:10:41.762Z,6.27
2019-04-21T14:12:46.972Z,6.07
2019-04-21T14:14:58.383Z,9.43
2019-04-21T14:17:05.394Z,9.20
2019-04-21T14:19:17.449Z,6.63
2019-04-21T14:21:31.336Z,11.47
2019-04-21T14:23:43.447Z,11.13
2019-04-21T14:25:50.568Z,6.23
2019-04-21T14:27:57.729Z,11.63
2019-04-21T14:30:10.434Z,8.20
2019-04-21T14:32:16.110Z,6.40
2019-04-21T14:34:21.858Z,7.00
2019-04-21T14:36:34.925Z,6.37
2019-04-21T14:38:40.776Z,7.80
2019-04-21T14:40:46.241Z,6.63
2019-04-21T14:43:05.828Z,7.60
2019-04-21T14:45:21.058Z,7.83
2019-04-21T14:47:42.137Z,6.73
2019-04-21T14:50:28.396Z,12.03
2019-04-21T14:52:44.281Z,7.73
2019-04-21T14:54:56.706Z,6.30
2019-04-21T14:57:03.333Z,10.00
2019-04-21T14:59:15.194Z,11.33
2019-04-21T15:01:21.641Z,6.17
2019-04-21T15:03:39.962Z,7.00
2019-04-21T15:05:51.550Z,7.30
2019-04-21T15:07:57.290Z,13.20
2019-04-21T15:10:15.108Z,7.00
2019-04-21T15:12:16.384Z,12.33
2019-04-21T15:14:22.202Z,7.73
2019-04-21T15:16:34.350Z,8.20
2019-04-21T15:18:40.918Z,7.40
2019-04-21T15:20:53.310Z,8.30
